Time;durP1;ratioP1;P1;durP2;ratioP2;P2;SDS_P1;SDS_P2;PMS_P1;PMS_P2;Temp;Humidity;BMP_temperature;BMP_pressure;BME280_temperature;BME280_humidity;BME280_pressure;Samples;Min_cycle;Max_cycle;Signal;HPM_P1;HPM_P2
2022/04/23 00:00:56;;;;;;;;;;;12.80;70.90;;;;;;5080833;28;20641;-71
2022/04/23 00:03:21;;;;;;;;;;;12.80;70.90;;;;;;5075110;28;19920;-71
2022/04/23 00:05:47;;;;;;;;;;;12.80;70.60;;;;;;5076414;28;19912;-71
2022/04/23 00:08:12;;;;;;;;;;;12.80;70.80;;;;;;5080564;28;19995;-71
2022/04/23 00:10:38;;;;;;;;;;;12.70;70.90;;;;;;5077391;28;19916;-71
2022/04/23 00:13:04;;;;;;;;;;;12.70;71.10;;;;;;5069587;28;19917;-71
2022/04/23 00:15:37;;;;;;;;;;;12.70;70.90;;;;;;5078298;28;19912;-71
2022/04/23 00:18:07;;;;;;;;;;;12.70;70.80;;;;;;5073781;28;19916;-71
2022/04/23 00:20:33;;;;;;;;;;;12.70;70.90;;;;;;5073392;28;20448;-71
2022/04/23 00:22:59;;;;;;;;;;;12.60;71.30;;;;;;5070563;28;19924;-71
2022/04/23 00:25:28;;;;;;;;;;;12.60;71.20;;;;;;5080930;28;19973;-71
2022/04/23 00:27:53;;;;;;;;;;;12.60;71.30;;;;;;5076489;28;19919;-71
2022/04/23 00:30:19;;;;;;;;;;;12.60;71.10;;;;;;5074002;28;19912;-71
2022/04/23 00:32:45;;;;;;;;;;;12.60;71.10;;;;;;5076901;28;19916;-71
2022/04/23 00:35:17;;;;;;;;;;;12.60;71.20;;;;;;5080289;28;19980;-71
2022/04/23 00:37:44;;;;;;;;;;;12.50;71.30;;;;;;5071803;28;19912;-71
2022/04/23 00:40:16;;;;;;;;;;;12.50;71.20;;;;;;5080399;28;19920;-71
2022/04/23 00:43:01;;;;;;;;;;;12.50;71.20;;;;;;5081972;28;19951;-71
2022/04/23 00:45:27;;;;;;;;;;;12.50;71.30;;;;;;5080413;28;19926;-71
2022/04/23 00:47:53;;;;;;;;;;;12.50;71.50;;;;;;5072729;28;20241;-71
2022/04/23 00:50:22;;;;;;;;;;;12.50;71.60;;;;;;5085108;28;20309;-71
2022/04/23 00:52:52;;;;;;;;;;;12.40;71.50;;;;;;5087407;28;19918;-71
2022/04/23 00:55:18;;;;;;;;;;;12.40;71.80;;;;;;5070046;28;19923;-71
2022/04/23 00:57:43;;;;;;;;;;;12.40;71.80;;;;;;5078927;28;19912;-71
2022/04/23 01:00:09;;;;;;;;;;;12.40;71.80;;;;;;5082683;28;19912;-71
2022/04/23 01:02:38;;;;;;;;;;;12.40;71.90;;;;;;5077192;28;19916;-71
2022/04/23 01:05:08;;;;;;;;;;;12.40;71.90;;;;;;5077024;28;20031;-71
2022/04/23 01:07:36;;;;;;;;;;;12.40;71.90;;;;;;5081784;28;19912;-71
2022/04/23 01:10:02;;;;;;;;;;;12.30;72.00;;;;;;5080450;28;19916;-71
2022/04/23 01:12:28;;;;;;;;;;;12.30;72.10;;;;;;5087832;28;19979;-71
2022/04/23 01:14:57;;;;;;;;;;;12.30;72.10;;;;;;5073963;28;19912;-71
2022/04/23 01:17:22;;;;;;;;;;;12.30;72.10;;;;;;5087426;28;20427;-71
2022/04/23 01:19:48;;;;;;;;;;;12.30;72.20;;;;;;5078196;28;19918;-71
2022/04/23 01:22:13;;;;;;;;;;;12.30;72.20;;;;;;5080534;28;19911;-71
2022/04/23 01:24:39;;;;;;;;;;;12.20;71.90;;;;;;5077065;28;19918;-71
2022/04/23 01:27:05;;;;;;;;;;;12.20;72.30;;;;;;5081982;28;19943;-71
2022/04/23 01:29:30;;;;;;;;;;;12.20;72.40;;;;;;5077476;28;19940;-71
2022/04/23 01:31:56;;;;;;;;;;;12.20;72.50;;;;;;5074350;28;20010;-71
2022/04/23 01:34:21;;;;;;;;;;;12.20;72.50;;;;;;5082491;28;19980;-71
2022/04/23 01:36:47;;;;;;;;;;;12.20;72.20;;;;;;5082507;28;19917;-71
2022/04/23 01:39:12;;;;;;;;;;;12.20;72.20;;;;;;5074992;28;20468;-71
2022/04/23 01:41:38;;;;;;;;;;;12.20;72.60;;;;;;5074996;28;19916;-71
2022/04/23 01:44:04;;;;;;;;;;;12.10;72.50;;;;;;5081211;28;19923;-71
2022/04/23 01:46:29;;;;;;;;;;;12.10;72.50;;;;;;5075277;28;20331;-71
2022/04/23 01:48:54;;;;;;;;;;;12.10;72.50;;;;;;5078860;28;19938;-71
2022/04/23 01:51:20;;;;;;;;;;;12.10;72.80;;;;;;5079360;28;19916;-71
2022/04/23 01:53:45;;;;;;;;;;;12.10;72.70;;;;;;5089189;28;19911;-71
2022/04/23 01:56:11;;;;;;;;;;;12.10;73.10;;;;;;5072736;28;20273;-71
2022/04/23 01:58:37;;;;;;;;;;;12.10;72.80;;;;;;5082678;28;19916;-71
2022/04/23 02:01:02;;;;;;;;;;;12.00;72.80;;;;;;5080257;28;19976;-71
2022/04/23 02:03:29;;;;;;;;;;;12.00;72.90;;;;;;5089129;28;19916;-71
2022/04/23 02:05:55;;;;;;;;;;;12.00;73.00;;;;;;5076597;28;19928;-71
2022/04/23 02:08:21;;;;;;;;;;;12.00;72.90;;;;;;5082078;28;19916;-71
2022/04/23 02:10:47;;;;;;;;;;;12.00;72.90;;;;;;5085707;28;19920;-71
2022/04/23 02:13:13;;;;;;;;;;;12.00;72.90;;;;;;5074039;28;19915;-71
2022/04/23 02:15:40;;;;;;;;;;;12.00;73.10;;;;;;5077267;28;19939;-71
2022/04/23 02:18:06;;;;;;;;;;;12.00;73.10;;;;;;5077861;28;19916;-71
2022/04/23 02:20:32;;;;;;;;;;;11.90;73.00;;;;;;5082027;28;19920;-71
2022/04/23 02:22:57;;;;;;;;;;;11.90;73.10;;;;;;5071373;28;19923;-71
2022/04/23 02:25:24;;;;;;;;;;;11.90;73.10;;;;;;5079378;28;20447;-71
2022/04/23 02:27:50;;;;;;;;;;;11.90;73.40;;;;;;5078273;28;19916;-71
2022/04/23 02:30:16;;;;;;;;;;;11.90;73.30;;;;;;5069427;28;19982;-71
2022/04/23 02:32:42;;;;;;;;;;;11.90;73.40;;;;;;5074201;28;20011;-71
2022/04/23 02:35:09;;;;;;;;;;;11.90;73.50;;;;;;5082975;28;21524;-71
2022/04/23 02:37:34;;;;;;;;;;;11.90;73.60;;;;;;5109778;27;19923;-71
2022/04/23 02:40:01;;;;;;;;;;;11.80;73.50;;;;;;5083559;28;19916;-71
2022/04/23 02:42:26;;;;;;;;;;;11.80;73.50;;;;;;5078212;28;20461;-71
2022/04/23 02:44:52;;;;;;;;;;;11.80;73.50;;;;;;5077856;28;19920;-71
2022/04/23 02:47:17;;;;;;;;;;;11.90;73.80;;;;;;5079511;28;19912;-71
2022/04/23 02:49:43;;;;;;;;;;;11.80;73.80;;;;;;5079395;28;19920;-71
2022/04/23 02:52:08;;;;;;;;;;;11.80;73.80;;;;;;5083567;28;19916;-71
2022/04/23 02:54:33;;;;;;;;;;;11.80;73.90;;;;;;5083736;28;19947;-71
2022/04/23 02:57:00;;;;;;;;;;;11.70;73.90;;;;;;5072885;28;20469;-71
2022/04/23 02:59:26;;;;;;;;;;;11.80;74.10;;;;;;5076571;28;19962;-71
2022/04/23 03:01:52;;;;;;;;;;;11.80;74.10;;;;;;5083258;28;19912;-71
2022/04/23 03:04:19;;;;;;;;;;;11.80;74.00;;;;;;5076963;28;19985;-71
2022/04/23 03:06:45;;;;;;;;;;;11.80;74.00;;;;;;5070559;28;19919;-71
2022/04/23 03:09:11;;;;;;;;;;;11.80;74.20;;;;;;5076701;28;20260;-71
2022/04/23 03:11:36;;;;;;;;;;;11.80;74.10;;;;;;5078995;28;19926;-71
2022/04/23 03:14:03;;;;;;;;;;;11.70;74.10;;;;;;5070068;28;19955;-71
2022/04/23 03:16:29;;;;;;;;;;;11.70;74.10;;;;;;5080240;28;19912;-71
2022/04/23 03:18:56;;;;;;;;;;;11.70;74.20;;;;;;5081725;28;20365;-71
2022/04/23 03:21:22;;;;;;;;;;;11.70;74.40;;;;;;5077735;28;19922;-71
2022/04/23 03:23:47;;;;;;;;;;;11.70;74.20;;;;;;5069169;28;19912;-71
2022/04/23 03:26:13;;;;;;;;;;;11.70;74.10;;;;;;5076688;28;19924;-71
2022/04/23 03:28:39;;;;;;;;;;;11.70;74.20;;;;;;5079752;28;19912;-71
2022/04/23 03:31:04;;;;;;;;;;;11.70;73.60;;;;;;5072902;28;19935;-71
2022/04/23 03:33:30;;;;;;;;;;;11.70;73.90;;;;;;5075269;28;19919;-71
2022/04/23 03:35:56;;;;;;;;;;;11.70;74.10;;;;;;5075962;28;20805;-71
2022/04/23 03:38:21;;;;;;;;;;;11.70;74.00;;;;;;5083726;28;20003;-71
2022/04/23 03:40:53;;;;;;;;;;;11.70;74.00;;;;;;5068955;28;19956;-71
2022/04/23 03:43:22;;;;;;;;;;;11.70;74.50;;;;;;5077288;28;19966;-71
2022/04/23 03:45:47;;;;;;;;;;;11.70;74.40;;;;;;5077567;28;19912;-72
2022/04/23 03:48:15;;;;;;;;;;;11.70;74.50;;;;;;5082454;28;19909;-71
2022/04/23 03:50:41;;;;;;;;;;;11.70;74.60;;;;;;5076777;28;19959;-71
2022/04/23 03:53:07;;;;;;;;;;;11.70;74.70;;;;;;5074585;28;20766;-71
2022/04/23 03:55:33;;;;;;;;;;;11.60;74.90;;;;;;5078400;28;19989;-71
2022/04/23 03:57:58;;;;;;;;;;;11.60;74.70;;;;;;5078946;28;20643;-71
2022/04/23 04:00:24;;;;;;;;;;;11.60;74.80;;;;;;5076890;28;19912;-71
2022/04/23 04:02:50;;;;;;;;;;;11.60;74.90;;;;;;5078104;28;19951;-71
2022/04/23 04:05:16;;;;;;;;;;;11.60;74.90;;;;;;5083601;28;19916;-71
2022/04/23 04:07:43;;;;;;;;;;;11.60;75.10;;;;;;5074077;28;19916;-71
2022/04/23 04:10:09;;;;;;;;;;;11.60;74.90;;;;;;5077554;28;19913;-71
2022/04/23 04:12:34;;;;;;;;;;;11.60;74.80;;;;;;5076880;28;19923;-71
2022/04/23 04:15:00;;;;;;;;;;;11.60;74.80;;;;;;5077492;28;19916;-71
2022/04/23 04:17:26;;;;;;;;;;;11.60;74.80;;;;;;5076705;28;19919;-71
2022/04/23 04:19:53;;;;;;;;;;;11.60;74.60;;;;;;5073969;28;19916;-71
2022/04/23 04:22:21;;;;;;;;;;;11.60;74.40;;;;;;5072224;28;19924;-71
2022/04/23 04:24:46;;;;;;;;;;;11.60;74.70;;;;;;5086086;28;19919;-71
2022/04/23 04:27:12;;;;;;;;;;;11.60;74.30;;;;;;5080978;28;19913;-71
2022/04/23 04:29:37;;;;;;;;;;;11.50;74.20;;;;;;5080825;28;19966;-71
2022/04/23 04:32:03;;;;;;;;;;;11.50;74.60;;;;;;5081360;28;19916;-71
2022/04/23 04:34:30;;;;;;;;;;;11.50;74.60;;;;;;5087112;28;20010;-71
2022/04/23 04:37:05;;;;;;;;;;;11.50;74.50;;;;;;5081122;28;19940;-71
2022/04/23 04:39:31;;;;;;;;;;;11.50;74.70;;;;;;5079259;28;20243;-71
2022/04/23 04:41:57;;;;;;;;;;;11.50;74.80;;;;;;5086773;28;19983;-71
2022/04/23 04:44:23;;;;;;;;;;;11.50;74.80;;;;;;5081030;28;20361;-71
2022/04/23 04:46:48;;;;;;;;;;;11.50;74.70;;;;;;5078202;28;19936;-71
2022/04/23 04:49:14;;;;;;;;;;;11.50;74.60;;;;;;5081835;28;20014;-71
2022/04/23 04:51:39;;;;;;;;;;;11.50;74.70;;;;;;5089511;28;19997;-71
2022/04/23 04:54:05;;;;;;;;;;;11.50;74.50;;;;;;5081010;28;20047;-71
2022/04/23 04:56:31;;;;;;;;;;;11.50;74.20;;;;;;5082114;28;19912;-71
2022/04/23 04:58:56;;;;;;;;;;;11.50;73.90;;;;;;5080978;28;19916;-71
2022/04/23 05:01:22;;;;;;;;;;;11.50;73.90;;;;;;5079972;28;19920;-71
2022/04/23 05:03:47;;;;;;;;;;;11.50;73.70;;;;;;5080122;28;19916;-71
2022/04/23 05:06:13;;;;;;;;;;;11.50;73.70;;;;;;5079227;28;20372;-71
2022/04/23 05:08:39;;;;;;;;;;;11.50;73.70;;;;;;5078105;28;20272;-71
2022/04/23 05:11:05;;;;;;;;;;;11.50;73.50;;;;;;5079127;28;19932;-71
2022/04/23 05:13:30;;;;;;;;;;;11.50;73.40;;;;;;5079037;27;20420;-71
2022/04/23 05:15:56;;;;;;;;;;;11.50;73.30;;;;;;5078016;28;19920;-71
2022/04/23 05:18:22;;;;;;;;;;;11.50;73.50;;;;;;5081325;28;19912;-71
2022/04/23 05:20:47;;;;;;;;;;;11.60;73.50;;;;;;5082424;28;19915;-71
2022/04/23 05:23:13;;;;;;;;;;;11.60;73.40;;;;;;5075809;28;19919;-71
2022/04/23 05:25:38;;;;;;;;;;;11.60;73.40;;;;;;5080556;28;19916;-71
2022/04/23 05:28:04;;;;;;;;;;;11.50;73.40;;;;;;5085463;28;19922;-71
2022/04/23 05:30:29;;;;;;;;;;;11.50;73.40;;;;;;5076581;28;20468;-71
2022/04/23 05:32:55;;;;;;;;;;;11.60;73.60;;;;;;5080939;28;19923;-71
2022/04/23 05:35:20;;;;;;;;;;;11.60;73.70;;;;;;5079613;28;19919;-71
2022/04/23 05:37:46;;;;;;;;;;;11.60;73.60;;;;;;5077927;28;20020;-71
2022/04/23 05:40:12;;;;;;;;;;;11.60;74.00;;;;;;5070298;28;19913;-71
2022/04/23 05:42:38;;;;;;;;;;;11.60;73.50;;;;;;5075556;28;19935;-71
2022/04/23 05:45:03;;;;;;;;;;;11.60;73.40;;;;;;5084425;28;20396;-71
2022/04/23 05:47:29;;;;;;;;;;;11.60;73.30;;;;;;5080209;28;20033;-71
2022/04/23 05:49:54;;;;;;;;;;;11.60;73.60;;;;;;5075155;28;19924;-71
2022/04/23 05:52:20;;;;;;;;;;;11.60;73.40;;;;;;5078685;28;20089;-71
2022/04/23 05:54:46;;;;;;;;;;;11.60;73.40;;;;;;5082543;28;19912;-71
2022/04/23 05:57:11;;;;;;;;;;;11.60;73.40;;;;;;5081801;28;19916;-71
2022/04/23 05:59:36;;;;;;;;;;;11.60;73.40;;;;;;5084023;28;19980;-71
2022/04/23 06:02:03;;;;;;;;;;;11.60;73.80;;;;;;5075121;28;20023;-71
2022/04/23 06:04:29;;;;;;;;;;;11.60;73.30;;;;;;5079203;28;20403;-71
2022/04/23 06:06:55;;;;;;;;;;;11.60;73.20;;;;;;5079271;28;19955;-71
2022/04/23 06:09:21;;;;;;;;;;;11.60;73.20;;;;;;5081384;28;19943;-71
2022/04/23 06:11:46;;;;;;;;;;;11.70;73.70;;;;;;5072441;28;19974;-71
2022/04/23 06:14:12;;;;;;;;;;;11.70;73.20;;;;;;5084639;28;19916;-71
2022/04/23 06:16:37;;;;;;;;;;;11.70;73.10;;;;;;5078464;28;20333;-71
2022/04/23 06:19:03;;;;;;;;;;;11.70;73.40;;;;;;5082350;28;20352;-71
2022/04/23 06:21:28;;;;;;;;;;;11.70;73.10;;;;;;5076207;28;19919;-71
2022/04/23 06:23:54;;;;;;;;;;;11.80;73.10;;;;;;5082564;28;19916;-71
2022/04/23 06:26:19;;;;;;;;;;;11.80;73.20;;;;;;5069404;28;19919;-71
2022/04/23 06:28:45;;;;;;;;;;;11.80;74.00;;;;;;5075482;28;20261;-71
2022/04/23 06:31:10;;;;;;;;;;;11.90;73.20;;;;;;5083655;28;19977;-71
2022/04/23 06:33:36;;;;;;;;;;;11.90;73.00;;;;;;5070324;28;20471;-71
2022/04/23 06:36:01;;;;;;;;;;;11.90;73.40;;;;;;5076233;28;20280;-71
2022/04/23 06:38:27;;;;;;;;;;;12.00;72.90;;;;;;5076442;28;19916;-71
2022/04/23 06:40:52;;;;;;;;;;;12.00;73.10;;;;;;5086023;28;19913;-71
2022/04/23 06:43:18;;;;;;;;;;;12.00;73.60;;;;;;5081528;28;19928;-71
2022/04/23 06:45:43;;;;;;;;;;;12.00;73.30;;;;;;5076864;28;20316;-71
2022/04/23 06:48:09;;;;;;;;;;;12.10;73.10;;;;;;5078390;28;19912;-71
2022/04/23 06:50:36;;;;;;;;;;;12.10;73.10;;;;;;5073667;28;19932;-71
2022/04/23 06:53:01;;;;;;;;;;;12.10;72.70;;;;;;5068745;28;19912;-71
2022/04/23 06:55:27;;;;;;;;;;;12.10;72.50;;;;;;5078301;28;19912;-71
2022/04/23 06:57:53;;;;;;;;;;;12.20;72.50;;;;;;5081299;28;19918;-71
2022/04/23 07:00:21;;;;;;;;;;;12.20;72.50;;;;;;5078156;28;19916;-71
2022/04/23 07:02:46;;;;;;;;;;;12.20;72.40;;;;;;5070691;28;20452;-71
2022/04/23 07:05:12;;;;;;;;;;;12.20;72.50;;;;;;5076225;28;19922;-71
2022/04/23 07:07:37;;;;;;;;;;;12.20;72.20;;;;;;5080048;28;20353;-71
2022/04/23 07:10:03;;;;;;;;;;;12.20;72.10;;;;;;5072272;28;19951;-71
2022/04/23 07:12:29;;;;;;;;;;;12.30;72.00;;;;;;5078251;28;20370;-71
2022/04/23 07:14:54;;;;;;;;;;;12.30;71.90;;;;;;5077975;28;19916;-71
2022/04/23 07:17:24;;;;;;;;;;;12.30;71.90;;;;;;5082691;28;19955;-71
2022/04/23 07:19:51;;;;;;;;;;;12.30;71.90;;;;;;5070151;28;19920;-71
2022/04/23 07:22:17;;;;;;;;;;;12.30;71.90;;;;;;5077025;28;19923;-71
2022/04/23 07:24:42;;;;;;;;;;;12.40;71.90;;;;;;5075245;28;19912;-71
2022/04/23 07:27:08;;;;;;;;;;;12.40;71.60;;;;;;5087887;28;19916;-71
2022/04/23 07:29:33;;;;;;;;;;;12.40;71.70;;;;;;5075981;28;19923;-71
2022/04/23 07:31:59;;;;;;;;;;;12.40;71.70;;;;;;5080345;28;20230;-71
2022/04/23 07:39:55;;;;;;;;;;;12.50;71.60;;;;;;5075858;28;19927;-71
2022/04/23 07:42:20;;;;;;;;;;;12.60;71.60;;;;;;5086169;28;19919;-71
2022/04/23 07:44:46;;;;;;;;;;;12.60;71.60;;;;;;5068742;28;20281;-71
2022/04/23 07:47:11;;;;;;;;;;;12.60;71.50;;;;;;5071229;28;19986;-71
2022/04/23 07:49:37;;;;;;;;;;;12.60;71.40;;;;;;5077093;28;20368;-71
2022/04/23 07:52:03;;;;;;;;;;;12.70;71.40;;;;;;5073558;28;19920;-71
2022/04/23 07:54:29;;;;;;;;;;;12.70;71.40;;;;;;5111129;27;19944;-71
2022/04/23 07:56:55;;;;;;;;;;;12.70;71.30;;;;;;5076092;28;20332;-71
2022/04/23 07:59:21;;;;;;;;;;;12.70;71.30;;;;;;5074996;28;19924;-71
2022/04/23 08:01:47;;;;;;;;;;;12.80;71.30;;;;;;5072271;28;19967;-71
2022/04/23 08:04:12;;;;;;;;;;;12.80;71.30;;;;;;5084049;28;19943;-71
2022/04/23 08:06:38;;;;;;;;;;;12.80;71.30;;;;;;5075710;28;19998;-71
2022/04/23 08:09:04;;;;;;;;;;;12.80;71.30;;;;;;5083108;28;19919;-71
2022/04/23 08:11:30;;;;;;;;;;;12.90;71.30;;;;;;5071458;28;19927;-71
2022/04/23 08:13:56;;;;;;;;;;;12.90;71.30;;;;;;5075077;28;19924;-71
2022/04/23 08:16:22;;;;;;;;;;;12.90;71.30;;;;;;5076054;28;19951;-71
2022/04/23 08:18:47;;;;;;;;;;;13.00;71.30;;;;;;5074147;28;19947;-71
2022/04/23 08:21:14;;;;;;;;;;;13.00;71.10;;;;;;5075434;28;19965;-71
2022/04/23 08:23:39;;;;;;;;;;;13.00;71.00;;;;;;5073211;28;19919;-71
2022/04/23 08:26:05;;;;;;;;;;;13.10;70.90;;;;;;5081698;28;19916;-71
2022/04/23 08:31:15;;;;;;;;;;;13.10;70.80;;;;;;5073491;28;20057;-71
2022/04/23 08:33:59;;;;;;;;;;;13.20;70.80;;;;;;5073832;28;20313;-71
2022/04/23 08:36:29;;;;;;;;;;;13.20;70.80;;;;;;5073443;28;19912;-71
2022/04/23 08:38:56;;;;;;;;;;;13.30;70.60;;;;;;5070979;28;20521;-71
2022/04/23 08:41:28;;;;;;;;;;;13.30;70.50;;;;;;5077195;28;20642;-71
2022/04/23 08:44:07;;;;;;;;;;;13.40;70.50;;;;;;5084245;28;19993;-71
2022/04/23 08:46:36;;;;;;;;;;;13.40;71.00;;;;;;5072963;28;19912;-71
2022/04/23 08:49:09;;;;;;;;;;;13.40;70.50;;;;;;5074743;28;19923;-71
2022/04/23 08:51:36;;;;;;;;;;;13.50;70.20;;;;;;5080498;28;19916;-71
2022/04/23 08:54:07;;;;;;;;;;;13.50;70.50;;;;;;5079820;28;20490;-71
2022/04/23 08:56:33;;;;;;;;;;;13.50;70.20;;;;;;5073283;28;20638;-71
2022/04/23 08:58:59;;;;;;;;;;;13.50;70.20;;;;;;5081477;28;19916;-71
2022/04/23 09:01:25;;;;;;;;;;;13.50;70.20;;;;;;5078843;28;19924;-71
2022/04/23 09:03:50;;;;;;;;;;;13.60;70.10;;;;;;5066827;28;20022;-71
2022/04/23 09:06:16;;;;;;;;;;;13.60;70.00;;;;;;5072642;28;19912;-71
2022/04/23 09:09:01;;;;;;;;;;;13.60;70.10;;;;;;5076058;28;19916;-71
2022/04/23 09:11:32;;;;;;;;;;;13.70;70.00;;;;;;5081057;28;19955;-71
2022/04/23 09:13:58;;;;;;;;;;;13.70;69.90;;;;;;5076099;28;19916;-71
2022/04/23 09:24:46;;;;;;;;;;;13.80;69.70;;;;;;5050574;28;19916;-71
2022/04/23 09:27:12;;;;;;;;;;;13.90;69.90;;;;;;5086907;28;19940;-71
2022/04/23 09:29:37;;;;;;;;;;;13.90;69.80;;;;;;5076756;28;19951;-71
2022/04/23 09:32:09;;;;;;;;;;;14.00;69.50;;;;;;5078997;28;19924;-71
2022/04/23 09:34:35;;;;;;;;;;;14.10;69.20;;;;;;5075593;28;20377;-71
2022/04/23 09:37:00;;;;;;;;;;;14.10;69.30;;;;;;5079679;28;19913;-71
2022/04/23 09:39:34;;;;;;;;;;;14.10;69.20;;;;;;5071108;28;19920;-71
2022/04/23 09:42:13;;;;;;;;;;;14.20;68.90;;;;;;5072530;28;20336;-71
2022/04/23 09:44:39;;;;;;;;;;;14.30;68.80;;;;;;5074621;28;19943;-71
2022/04/23 09:47:04;;;;;;;;;;;14.30;68.70;;;;;;5075854;28;19966;-71
2022/04/23 09:49:30;;;;;;;;;;;14.40;68.80;;;;;;5076462;28;19977;-71
2022/04/23 09:52:03;;;;;;;;;;;14.50;68.70;;;;;;5082876;28;19916;-71
2022/04/23 09:54:29;;;;;;;;;;;14.50;68.70;;;;;;5077781;28;19922;-71
2022/04/23 09:56:55;;;;;;;;;;;14.50;68.70;;;;;;5069269;28;19928;-71
2022/04/23 09:59:21;;;;;;;;;;;14.60;68.70;;;;;;5109828;27;20390;-71
2022/04/23 10:01:47;;;;;;;;;;;14.60;68.70;;;;;;5078995;28;20029;-71
2022/04/23 10:04:13;;;;;;;;;;;14.70;68.70;;;;;;5083024;28;19913;-71
2022/04/23 10:06:41;;;;;;;;;;;14.80;68.50;;;;;;5079159;28;19915;-71
2022/04/23 10:09:08;;;;;;;;;;;14.90;68.20;;;;;;5081904;28;19912;-71
2022/04/23 10:11:37;;;;;;;;;;;14.90;68.10;;;;;;5085860;28;19927;-71
2022/04/23 10:14:03;;;;;;;;;;;15.00;67.90;;;;;;5077493;28;19912;-71
2022/04/23 10:16:29;;;;;;;;;;;15.00;68.30;;;;;;5076353;28;20659;-71
2022/04/23 10:18:58;;;;;;;;;;;15.10;68.50;;;;;;5085455;28;19912;-71
2022/04/23 10:21:32;;;;;;;;;;;15.10;68.20;;;;;;5073650;28;19923;-71
2022/04/23 10:24:02;;;;;;;;;;;15.10;68.30;;;;;;5075392;28;19923;-71
2022/04/23 10:26:47;;;;;;;;;;;15.10;68.70;;;;;;5075988;28;19916;-71
2022/04/23 10:29:14;;;;;;;;;;;15.10;68.50;;;;;;5087517;28;19911;-71
2022/04/23 10:31:41;;;;;;;;;;;15.10;68.00;;;;;;5074169;28;19916;-71
2022/04/23 10:34:26;;;;;;;;;;;15.20;68.30;;;;;;5078612;28;19913;-71
2022/04/23 10:37:12;;;;;;;;;;;15.20;68.30;;;;;;5079439;28;19966;-71
2022/04/23 10:39:37;;;;;;;;;;;15.30;67.90;;;;;;5082695;28;19944;-71
2022/04/23 10:42:03;;;;;;;;;;;15.30;68.00;;;;;;5072348;28;19967;-71
2022/04/23 10:44:30;;;;;;;;;;;15.40;67.90;;;;;;5086059;28;19912;-71
2022/04/23 10:46:58;;;;;;;;;;;15.50;67.30;;;;;;5076564;28;19923;-71
2022/04/23 10:49:24;;;;;;;;;;;15.70;66.90;;;;;;5080947;28;19916;-71
2022/04/23 10:51:54;;;;;;;;;;;15.80;66.90;;;;;;5078542;28;20373;-71
2022/04/23 10:54:40;;;;;;;;;;;15.90;67.10;;;;;;5085602;28;19918;-71
2022/04/23 10:57:06;;;;;;;;;;;16.00;67.00;;;;;;5070167;28;19917;-71
2022/04/23 10:59:33;;;;;;;;;;;16.10;67.90;;;;;;5079016;28;19916;-71
2022/04/23 11:02:03;;;;;;;;;;;16.20;67.10;;;;;;5079503;28;20431;-71
2022/04/23 11:04:28;;;;;;;;;;;16.30;66.70;;;;;;5072150;28;20065;-71
2022/04/23 11:12:23;;;;;;;;;;;16.60;66.90;;;;;;5083797;28;19916;-71
2022/04/23 11:14:52;;;;;;;;;;;16.70;66.80;;;;;;5066977;28;19916;-71
2022/04/23 11:17:44;;;;;;;;;;;16.80;66.70;;;;;;5074200;28;19965;-71
2022/04/23 11:20:10;;;;;;;;;;;17.00;66.80;;;;;;5081667;28;19919;-71
2022/04/23 11:22:36;;;;;;;;;;;17.10;66.50;;;;;;5079230;28;19912;-71
2022/04/23 11:25:01;;;;;;;;;;;17.20;66.50;;;;;;5075946;28;20440;-71
2022/04/23 11:27:28;;;;;;;;;;;17.30;66.50;;;;;;5077997;28;19966;-71
2022/04/23 11:29:54;;;;;;;;;;;17.40;66.30;;;;;;5074211;28;19923;-71
2022/04/23 11:32:28;;;;;;;;;;;17.60;66.30;;;;;;5073699;28;19916;-71
2022/04/23 11:34:55;;;;;;;;;;;17.70;66.00;;;;;;5072169;28;19912;-71
2022/04/23 11:37:32;;;;;;;;;;;17.70;66.30;;;;;;5083412;27;19965;-71
2022/04/23 11:40:11;;;;;;;;;;;17.80;65.70;;;;;;5076772;28;19916;-71
2022/04/23 11:42:40;;;;;;;;;;;17.90;66.20;;;;;;5069028;28;19916;-71
2022/04/23 11:45:06;;;;;;;;;;;18.00;65.80;;;;;;5077743;28;20581;-71
2022/04/23 11:47:33;;;;;;;;;;;18.10;65.50;;;;;;5086385;28;19915;-71
2022/04/23 11:50:08;;;;;;;;;;;18.10;65.50;;;;;;5073969;28;19928;-71
2022/04/23 11:52:33;;;;;;;;;;;18.30;64.20;;;;;;5076892;28;20001;-71
2022/04/23 11:55:03;;;;;;;;;;;18.40;65.20;;;;;;5105964;27;20130;-71
2022/04/23 11:57:28;;;;;;;;;;;18.30;64.30;;;;;;5085829;28;19919;-71
2022/04/23 11:59:59;;;;;;;;;;;18.30;64.30;;;;;;5069171;28;19920;-70
2022/04/23 12:02:26;;;;;;;;;;;18.30;64.00;;;;;;5077882;28;19916;-70
2022/04/23 12:04:52;;;;;;;;;;;18.30;64.80;;;;;;5079323;28;19912;-68
2022/04/23 12:07:18;;;;;;;;;;;18.40;65.30;;;;;;5078362;28;19944;-70
2022/04/23 12:09:50;;;;;;;;;;;18.40;65.10;;;;;;5077187;28;19965;-69
2022/04/23 12:12:22;;;;;;;;;;;18.30;64.90;;;;;;5091840;28;20030;-69
2022/04/23 12:14:55;;;;;;;;;;;18.30;65.30;;;;;;5069555;28;19966;-69
2022/04/23 12:17:29;;;;;;;;;;;18.30;65.20;;;;;;5077133;28;19916;-69
2022/04/23 12:19:59;;;;;;;;;;;18.30;65.50;;;;;;5076698;28;19908;-69
2022/04/23 12:22:28;;;;;;;;;;;18.30;65.80;;;;;;5075998;28;19927;-69
2022/04/23 12:25:10;;;;;;;;;;;18.30;65.90;;;;;;5067994;28;19931;-69
2022/04/23 12:27:54;;;;;;;;;;;18.20;66.50;;;;;;5073833;28;19962;-69
2022/04/23 12:41:55;;;;;;;;;;;18.30;65.50;;;;;;5069235;28;20023;-69
2022/04/23 12:44:21;;;;;;;;;;;18.30;65.00;;;;;;5089305;28;19909;-70
2022/04/23 12:46:53;;;;;;;;;;;18.30;65.30;;;;;;5081254;28;20370;-69
2022/04/23 12:49:21;;;;;;;;;;;18.30;65.50;;;;;;5079907;28;19920;-69
2022/04/23 12:51:51;;;;;;;;;;;18.20;65.30;;;;;;5074811;28;19937;-69
2022/04/23 12:54:16;;;;;;;;;;;18.30;65.50;;;;;;5075744;28;19931;-69
2022/04/23 12:56:42;;;;;;;;;;;18.30;65.30;;;;;;5081025;28;19912;-69
2022/04/23 12:59:07;;;;;;;;;;;18.20;64.80;;;;;;5082362;28;19916;-69
2022/04/23 13:01:32;;;;;;;;;;;18.20;64.90;;;;;;5076125;28;19912;-69
2022/04/23 13:03:59;;;;;;;;;;;18.20;63.80;;;;;;5080076;28;19985;-69
2022/04/23 13:09:09;;;;;;;;;;;18.20;62.70;;;;;;5072734;28;19923;-69
2022/04/23 13:11:35;;;;;;;;;;;18.20;64.30;;;;;;5060771;28;20604;-69
2022/04/23 13:14:01;;;;;;;;;;;18.20;62.70;;;;;;5082523;28;19917;-69
2022/04/23 13:16:28;;;;;;;;;;;18.20;64.00;;;;;;5081529;28;19912;-69
2022/04/23 13:19:01;;;;;;;;;;;18.30;63.20;;;;;;5075630;28;19926;-70
2022/04/23 13:21:27;;;;;;;;;;;18.20;63.70;;;;;;5083976;28;19966;-70
2022/04/23 13:23:53;;;;;;;;;;;18.30;63.20;;;;;;5076766;28;19917;-70
2022/04/23 13:26:19;;;;;;;;;;;18.30;63.70;;;;;;5086346;28;20348;-70
2022/04/23 13:28:45;;;;;;;;;;;18.30;63.40;;;;;;5077120;28;19951;-69
2022/04/23 13:31:10;;;;;;;;;;;18.30;62.80;;;;;;5088761;28;19916;-70
2022/04/23 13:33:36;;;;;;;;;;;18.40;61.50;;;;;;5085023;27;19920;-70
2022/04/23 13:36:02;;;;;;;;;;;18.40;61.60;;;;;;5084620;28;19916;-70
2022/04/23 13:38:27;;;;;;;;;;;18.40;61.70;;;;;;5071767;28;19913;-70
2022/04/23 13:40:53;;;;;;;;;;;18.30;60.40;;;;;;5078634;28;19912;-70
2022/04/23 13:43:18;;;;;;;;;;;18.30;61.60;;;;;;5078556;28;19924;-70
2022/04/23 13:45:44;;;;;;;;;;;18.30;61.10;;;;;;5078901;28;19916;-70
2022/04/23 13:48:10;;;;;;;;;;;18.30;60.10;;;;;;5081120;28;19969;-70
2022/04/23 13:50:36;;;;;;;;;;;18.30;61.70;;;;;;5072265;28;20011;-70
2022/04/23 13:53:01;;;;;;;;;;;18.30;61.20;;;;;;5080350;28;19965;-70
2022/04/23 13:55:27;;;;;;;;;;;18.30;61.50;;;;;;5073066;28;20023;-70
2022/04/23 13:57:52;;;;;;;;;;;18.30;61.60;;;;;;5085617;28;19948;-70
2022/04/23 14:00:18;;;;;;;;;;;18.30;61.70;;;;;;5079204;28;19957;-70
2022/04/23 14:10:56;;;;;;;;;;;18.30;60.80;;;;;;5079865;28;19958;-70
2022/04/23 14:13:22;;;;;;;;;;;18.40;59.90;;;;;;5086992;28;20712;-70
2022/04/23 14:15:47;;;;;;;;;;;18.40;59.80;;;;;;5074501;28;19966;-70
2022/04/23 14:18:13;;;;;;;;;;;18.40;59.90;;;;;;5078249;28;20708;-70
2022/04/23 14:20:39;;;;;;;;;;;18.40;59.40;;;;;;5080167;28;20032;-70
2022/04/23 14:23:04;;;;;;;;;;;18.40;60.00;;;;;;5074620;28;19923;-70
2022/04/23 14:25:30;;;;;;;;;;;18.40;60.30;;;;;;5069495;28;19938;-70
2022/04/23 14:27:55;;;;;;;;;;;18.40;60.20;;;;;;5082350;28;19919;-70
2022/04/23 14:30:21;;;;;;;;;;;18.40;60.10;;;;;;5077533;28;20607;-70
2022/04/23 14:32:46;;;;;;;;;;;18.30;60.60;;;;;;5077721;28;19920;-70
2022/04/23 14:35:12;;;;;;;;;;;18.30;60.70;;;;;;5081364;28;20292;-70
2022/04/23 14:37:37;;;;;;;;;;;18.30;61.10;;;;;;5075016;28;19955;-69
2022/04/23 14:40:03;;;;;;;;;;;18.20;61.20;;;;;;5072983;28;20015;-69
2022/04/23 14:42:29;;;;;;;;;;;18.20;61.70;;;;;;5072744;28;20452;-69
2022/04/23 14:44:55;;;;;;;;;;;18.20;61.50;;;;;;5079535;28;19916;-70
2022/04/23 14:47:21;;;;;;;;;;;18.20;61.70;;;;;;5077575;28;19922;-70
2022/04/23 14:49:46;;;;;;;;;;;18.10;61.60;;;;;;5078189;28;19927;-70
2022/04/23 14:54:56;;;;;;;;;;;18.10;62.30;;;;;;5085938;28;19915;-70
2022/04/23 14:57:22;;;;;;;;;;;18.10;62.50;;;;;;5077919;28;20400;-70
2022/04/23 14:59:47;;;;;;;;;;;18.10;62.30;;;;;;5070221;28;19912;-70
2022/04/23 15:02:13;;;;;;;;;;;18.00;62.00;;;;;;5074884;28;19922;-70